createdAt,value
2023-04-25T00:00:11.449Z,96835.13
2023-04-25T00:03:02.862Z,96836.60
2023-04-25T00:05:31.714Z,96830.45
2023-04-25T00:08:00.172Z,96822.96
2023-04-25T00:10:28.433Z,96817.51
2023-04-25T00:12:56.710Z,96812.69
2023-04-25T00:15:25.606Z,96811.81
2023-04-25T00:17:54.158Z,96809.41
2023-04-25T00:20:23.175Z,96812.30
2023-04-25T00:22:53.914Z,96809.45
2023-04-25T00:25:22.082Z,96804.94
2023-04-25T00:27:50.477Z,96800.85
2023-04-25T00:30:18.637Z,96801.02
2023-04-25T00:32:47.177Z,96796.29
2023-04-25T00:35:15.811Z,96792.98
2023-04-25T00:37:43.983Z,96791.96
2023-04-25T00:40:12.560Z,96794.52
2023-04-25T00:42:42.659Z,96789.83
2023-04-25T00:45:15.376Z,96785.56
2023-04-25T00:47:44.409Z,96784.25
2023-04-25T00:50:13.640Z,96782.61
2023-04-25T00:52:44.267Z,96780.43
2023-04-25T00:55:13.775Z,96778.05
2023-04-25T00:57:42.672Z,96777.29
2023-04-25T01:00:15.261Z,96775.11
2023-04-25T01:02:43.998Z,96773.37
2023-04-25T01:05:13.327Z,96772.90
2023-04-25T01:07:42.014Z,96772.08
2023-04-25T01:10:11.009Z,96772.05
2023-04-25T01:12:39.284Z,96768.27
2023-04-25T01:15:08.158Z,96765.52
2023-04-25T01:17:36.940Z,96765.38
2023-04-25T01:20:06.144Z,96769.23
2023-04-25T01:22:34.733Z,96771.05
2023-04-25T01:25:03.848Z,96773.77
2023-04-25T01:27:33.033Z,96766.70
2023-04-25T01:30:06.777Z,96764.52
2023-04-25T01:32:39.739Z,96765.66
2023-04-25T01:35:13.009Z,96763.15
2023-04-25T01:37:42.922Z,96764.64
2023-04-25T01:40:13.970Z,96763.00
2023-04-25T01:42:43.357Z,96761.11
2023-04-25T01:45:13.048Z,96760.83
2023-04-25T01:47:42.727Z,96759.34
2023-04-25T01:50:12.601Z,96755.37
2023-04-25T01:52:41.135Z,96753.28
2023-04-25T01:55:10.327Z,96751.67
2023-04-25T01:57:41.522Z,96751.71
2023-04-25T02:00:11.034Z,96750.27
2023-04-25T02:02:42.303Z,96750.08
2023-04-25T02:05:23.036Z,96745.88
2023-04-25T02:07:51.213Z,96741.84
2023-04-25T02:10:19.499Z,96738.61
2023-04-25T02:13:08.030Z,96730.66
2023-04-25T02:15:59.747Z,96730.13
2023-04-25T02:18:28.051Z,96730.80
2023-04-25T02:20:56.618Z,96734.93
2023-04-25T02:23:24.755Z,96733.31
2023-04-25T02:25:53.583Z,96732.77
2023-04-25T02:28:21.956Z,96730.30
2023-04-25T02:30:49.973Z,96728.22
2023-04-25T02:33:18.304Z,96728.02
2023-04-25T02:35:46.545Z,96726.90
2023-04-25T02:38:14.977Z,96725.63
2023-04-25T02:40:43.239Z,96730.04
2023-04-25T02:43:11.568Z,96731.36
2023-04-25T02:45:39.874Z,96731.56
2023-04-25T02:48:08.287Z,96728.69
2023-04-25T02:50:36.441Z,96728.28
2023-04-25T02:53:04.685Z,96726.70
2023-04-25T02:55:38.311Z,96723.86
2023-04-25T02:58:06.904Z,96719.70
2023-04-25T03:00:41.735Z,96720.11
2023-04-25T03:03:10.289Z,96721.42
2023-04-25T03:05:38.731Z,96722.77
2023-04-25T03:08:07.165Z,96716.65
2023-04-25T03:10:35.852Z,96717.25
2023-04-25T03:13:06.631Z,96719.17
2023-04-25T03:15:37.212Z,96718.27
2023-04-25T03:18:05.642Z,96715.34
2023-04-25T03:20:33.782Z,96713.67
2023-04-25T03:23:02.031Z,96714.48
2023-04-25T03:25:31.012Z,96712.70
2023-04-25T03:27:59.201Z,96712.22
2023-04-25T03:30:27.902Z,96710.80
2023-04-25T03:32:56.540Z,96711.40
2023-04-25T03:35:25.929Z,96711.30
2023-04-25T03:37:54.771Z,96705.94
2023-04-25T03:40:29.182Z,96710.02
2023-04-25T03:43:36.268Z,96708.89
2023-04-25T03:46:07.029Z,96708.67
2023-04-25T03:48:35.394Z,96703.70
2023-04-25T03:51:03.860Z,96703.27
2023-04-25T03:53:32.540Z,96705.47
2023-04-25T03:56:23.740Z,96707.71
2023-04-25T03:58:58.069Z,96708.80
2023-04-25T04:01:27.376Z,96709.29
2023-04-25T04:03:56.442Z,96707.61
2023-04-25T04:06:26.791Z,96708.52
2023-04-25T04:09:02.723Z,96707.16
2023-04-25T04:11:33.584Z,96709.02
2023-04-25T04:14:01.767Z,96706.09
2023-04-25T04:16:31.451Z,96704.12
2023-04-25T04:19:00.882Z,96703.04
2023-04-25T04:21:29.453Z,96709.02
2023-04-25T04:23:58.896Z,96707.87
2023-04-25T04:26:27.950Z,96703.48
2023-04-25T04:29:08.150Z,96704.45
2023-04-25T04:31:56.784Z,96700.23
2023-04-25T04:34:26.988Z,96697.91
2023-04-25T04:36:56.170Z,96696.54
2023-04-25T04:39:24.434Z,96695.42
2023-04-25T04:42:10.242Z,96695.81
2023-04-25T04:44:56.131Z,96696.45
2023-04-25T04:47:44.179Z,96700.52
2023-04-25T04:50:33.807Z,96703.60
2023-04-25T04:53:24.479Z,96704.60
2023-04-25T04:56:26.460Z,96704.77
2023-04-25T04:58:54.682Z,96705.99
2023-04-25T05:01:31.777Z,96706.06
2023-04-25T05:04:22.911Z,96697.98
2023-04-25T05:07:14.287Z,96695.05
2023-04-25T05:10:03.146Z,96694.63
2023-04-25T05:12:49.858Z,96690.36
2023-04-25T05:15:36.730Z,96688.85
2023-04-25T05:18:23.933Z,96689.15
2023-04-25T05:21:07.110Z,96687.15
2023-04-25T05:23:55.147Z,96687.20
2023-04-25T05:26:42.189Z,96685.45
2023-04-25T05:29:36.457Z,96689.77
2023-04-25T05:32:23.614Z,96687.63
2023-04-25T05:34:52.854Z,96684.94
2023-04-25T05:37:27.795Z,96691.96
2023-04-25T05:40:08.060Z,96693.58
2023-04-25T05:42:54.758Z,96688.26
2023-04-25T05:45:29.178Z,96688.72
2023-04-25T05:48:06.298Z,96683.27
2023-04-25T05:50:46.012Z,96682.33
2023-04-25T05:53:43.344Z,96679.86
2023-04-25T05:56:11.942Z,96681.41
2023-04-25T05:58:40.319Z,96680.88
2023-04-25T06:01:10.135Z,96675.84
2023-04-25T06:03:39.689Z,96673.95
2023-04-25T06:06:08.388Z,96676.04
2023-04-25T06:08:36.560Z,96676.35
2023-04-25T06:11:05.898Z,96677.14
2023-04-25T06:13:34.247Z,96672.98
2023-04-25T06:16:02.876Z,96673.39
2023-04-25T06:18:31.441Z,96671.44
2023-04-25T06:20:59.833Z,96675.83
2023-04-25T06:23:29.117Z,96673.87
2023-04-25T06:26:08.375Z,96675.11
2023-04-25T06:28:38.350Z,96673.26
2023-04-25T06:31:06.882Z,96668.20
2023-04-25T06:33:35.202Z,96671.68
2023-04-25T06:36:04.522Z,96672.17
2023-04-25T06:38:33.312Z,96672.74
2023-04-25T06:41:01.469Z,96668.74
2023-04-25T06:43:34.386Z,96667.21
2023-04-25T06:46:05.171Z,96667.95
2023-04-25T06:48:34.913Z,96667.37
2023-04-25T06:51:03.453Z,96666.40
2023-04-25T06:53:31.794Z,96660.36
2023-04-25T06:56:02.365Z,96663.70
2023-04-25T06:58:45.371Z,96661.64
2023-04-25T07:01:18.444Z,96664.27
2023-04-25T07:03:46.776Z,96664.86
2023-04-25T07:06:18.546Z,96667.48
2023-04-25T07:08:46.961Z,96667.97
2023-04-25T07:11:15.510Z,96667.54
2023-04-25T07:13:45.778Z,96660.14
2023-04-25T07:16:13.984Z,96656.90
2023-04-25T07:18:42.690Z,96651.80
2023-04-25T07:21:11.260Z,96648.58
2023-04-25T07:23:41.924Z,96652.85
2023-04-25T07:26:13.772Z,96648.05
2023-04-25T07:28:53.410Z,96649.42
2023-04-25T07:31:23.060Z,96648.98
2023-04-25T07:33:51.312Z,96650.45
2023-04-25T07:36:19.384Z,96650.73
2023-04-25T07:38:47.669Z,96654.17
2023-04-25T07:41:15.677Z,96653.55
2023-04-25T07:43:44.400Z,96654.83
2023-04-25T07:46:12.562Z,96651.67
2023-04-25T07:48:40.739Z,96648.39
2023-04-25T07:51:08.995Z,96646.80
2023-04-25T07:53:38.768Z,96647.55
2023-04-25T07:56:10.374Z,96644.46
2023-04-25T07:58:40.299Z,96644.30
2023-04-25T08:01:10.522Z,96644.43
2023-04-25T08:03:39.079Z,96642.60
2023-04-25T08:06:11.404Z,96638.75
2023-04-25T08:08:50.006Z,96633.71
2023-04-25T08:11:20.106Z,96630.65
2023-04-25T08:13:48.376Z,96631.04
2023-04-25T08:16:20.083Z,96628.16
2023-04-25T08:18:48.426Z,96626.77
2023-04-25T08:21:16.465Z,96620.27
2023-04-25T08:23:45.991Z,96618.39
2023-04-25T08:26:21.439Z,96620.50
2023-04-25T08:28:49.679Z,96617.50
2023-04-25T08:31:18.847Z,96617.33
2023-04-25T08:34:01.706Z,96618.79
2023-04-25T08:36:40.565Z,96623.26
2023-04-25T08:39:38.387Z,96620.45
2023-04-25T08:42:25.748Z,96621.36
2023-04-25T08:44:56.061Z,96621.50
2023-04-25T08:47:29.630Z,96621.05
2023-04-25T08:50:00.918Z,96618.77
2023-04-25T08:52:33.743Z,96622.41
2023-04-25T08:55:03.818Z,96619.20
2023-04-25T08:57:32.829Z,96617.34
2023-04-25T09:00:02.191Z,96612.25
2023-04-25T09:02:31.380Z,96607.20
2023-04-25T09:05:00.422Z,96609.80
2023-04-25T09:07:29.682Z,96605.10
2023-04-25T09:09:57.730Z,96607.91
2023-04-25T09:12:28.517Z,96603.19
2023-04-25T09:15:09.603Z,96600.59
2023-04-25T09:17:57.683Z,96600.26
2023-04-25T09:20:27.735Z,96596.75
2023-04-25T09:23:06.480Z,96592.25
2023-04-25T09:25:44.076Z,96590.11
2023-04-25T09:28:12.109Z,96590.98
2023-04-25T09:30:40.758Z,96587.45
2023-04-25T09:33:20.144Z,96580.03
2023-04-25T09:35:56.312Z,96576.19
2023-04-25T09:38:53.905Z,96571.23
2023-04-25T09:41:39.771Z,96570.97
2023-04-25T09:44:08.115Z,96562.16
2023-04-25T09:46:39.444Z,96557.83
2023-04-25T09:49:11.124Z,96553.23
2023-04-25T09:51:58.162Z,96549.72
2023-04-25T09:54:35.536Z,96544.30
2023-04-25T09:57:18.687Z,96542.46
2023-04-25T09:59:55.095Z,96538.17
2023-04-25T10:02:26.436Z,96537.42
2023-04-25T10:04:57.729Z,96533.45
2023-04-25T10:07:32.118Z,96533.88
2023-04-25T10:10:04.670Z,96534.48
2023-04-25T10:12:35.029Z,96538.30
2023-04-25T10:15:05.726Z,96534.14
2023-04-25T10:17:35.326Z,96531.12
2023-04-25T10:20:08.772Z,96534.23
2023-04-25T10:22:48.554Z,96535.52
2023-04-25T10:25:19.940Z,96531.08
2023-04-25T10:27:48.061Z,96522.83
2023-04-25T10:30:17.037Z,96517.73
2023-04-25T10:32:46.948Z,96515.42
2023-04-25T10:35:20.667Z,96511.34
2023-04-25T10:38:00.932Z,96507.86
2023-04-25T10:40:29.244Z,96506.56
2023-04-25T10:43:32.508Z,96497.25
2023-04-25T10:46:01.891Z,96497.54
2023-04-25T10:48:31.545Z,96492.52
2023-04-25T10:51:16.523Z,96487.30
2023-04-25T10:54:08.287Z,96486.13
2023-04-25T10:56:45.186Z,96490.30
2023-04-25T10:59:15.788Z,96486.65
2023-04-25T11:01:55.811Z,96479.42
2023-04-25T11:04:29.728Z,96477.23
2023-04-25T11:07:09.190Z,96471.64
2023-04-25T11:09:41.195Z,96476.44
2023-04-25T11:12:12.770Z,96473.80
2023-04-25T11:17:14.393Z,96483.23
2023-04-25T11:19:42.964Z,96477.39
2023-04-25T11:22:11.752Z,96476.77
2023-04-25T11:24:40.372Z,96478.58
2023-04-25T11:27:09.532Z,96480.41
2023-04-25T11:29:37.605Z,96486.31
2023-04-25T11:32:06.334Z,96485.59
2023-04-25T11:34:35.072Z,96479.72
2023-04-25T11:37:04.119Z,96482.10
2023-04-25T11:39:32.130Z,96489.33
2023-04-25T11:42:01.865Z,96493.80
2023-04-25T11:44:31.360Z,96500.55
2023-04-25T11:46:59.548Z,96507.35
2023-04-25T11:49:32.514Z,96508.77
2023-04-25T11:52:01.101Z,96503.06
2023-04-25T11:54:29.262Z,96497.58
2023-04-25T11:56:57.797Z,96501.64
2023-04-25T11:59:27.525Z,96499.64
2023-04-25T12:01:56.034Z,96499.34
2023-04-25T12:04:25.827Z,96494.02
2023-04-25T12:06:56.436Z,96493.77
2023-04-25T12:09:34.963Z,96488.67
2023-04-25T12:12:04.215Z,96481.48
2023-04-25T12:14:34.549Z,96476.67
2023-04-25T12:17:06.315Z,96470.16
2023-04-25T12:19:36.806Z,96465.44
2023-04-25T12:22:21.271Z,96462.67
2023-04-25T12:24:49.328Z,96462.59
2023-04-25T12:27:20.237Z,96455.23
2023-04-25T12:29:57.353Z,96456.89
2023-04-25T12:32:26.226Z,96454.89
2023-04-25T12:34:54.478Z,96454.42
2023-04-25T12:37:22.680Z,96454.77
2023-04-25T12:39:51.677Z,96456.88
2023-04-25T12:42:19.955Z,96456.63
2023-04-25T12:44:48.008Z,96453.97
2023-04-25T12:47:16.431Z,96456.96
2023-04-25T12:49:44.400Z,96455.09
2023-04-25T12:52:12.573Z,96460.28
2023-04-25T12:54:40.758Z,96460.17
2023-04-25T12:57:08.996Z,96458.94
2023-04-25T12:59:36.986Z,96459.95
2023-04-25T13:02:05.843Z,96460.87
2023-04-25T13:04:34.582Z,96463.72
2023-04-25T13:07:02.905Z,96459.35
2023-04-25T13:09:31.194Z,96459.33
2023-04-25T13:12:00.006Z,96458.88
2023-04-25T13:14:28.022Z,96457.44
2023-04-25T13:16:56.751Z,96455.32
2023-04-25T13:19:25.018Z,96458.77
2023-04-25T13:21:53.045Z,96458.90
2023-04-25T13:24:21.153Z,96458.66
2023-04-25T13:26:49.165Z,96454.98
2023-04-25T13:29:17.386Z,96453.05
2023-04-25T13:31:45.518Z,96456.35
2023-04-25T13:34:13.775Z,96454.75
2023-04-25T13:36:41.996Z,96456.61
2023-04-25T13:39:10.183Z,96460.43
2023-04-25T13:41:38.597Z,96465.14
2023-04-25T13:44:06.633Z,96472.14
2023-04-25T13:46:46.478Z,96469.36
2023-04-25T13:49:15.855Z,96466.55
2023-04-25T13:51:44.157Z,96466.58
2023-04-25T13:54:12.714Z,96466.03
2023-04-25T13:56:43.450Z,96463.29
2023-04-25T13:59:12.483Z,96466.84
2023-04-25T14:01:40.707Z,96472.10
2023-04-25T14:04:09.652Z,96472.33
2023-04-25T14:06:38.008Z,96476.27
2023-04-25T14:09:07.823Z,96478.22
2023-04-25T14:11:36.367Z,96481.48
2023-04-25T14:14:04.612Z,96484.06
2023-04-25T14:16:33.292Z,96489.20
2023-04-25T14:19:02.151Z,96492.95
2023-04-25T14:21:33.590Z,96490.82
2023-04-25T14:24:02.201Z,96492.14
2023-04-25T14:26:30.265Z,96493.48
2023-04-25T14:28:58.293Z,96494.83
2023-04-25T14:31:26.441Z,96494.58
2023-04-25T14:33:56.979Z,96492.94
2023-04-25T14:36:27.768Z,96496.22
2023-04-25T14:38:56.266Z,96495.41
2023-04-25T14:41:26.049Z,96493.00
2023-04-25T14:43:54.522Z,96498.54
2023-04-25T14:46:24.497Z,96498.39
2023-04-25T14:48:53.197Z,96499.90
2023-04-25T14:51:21.826Z,96500.27
2023-04-25T14:53:50.117Z,96499.30
2023-04-25T14:56:18.686Z,96498.92
2023-04-25T14:58:47.286Z,96497.08
2023-04-25T15:01:15.538Z,96500.31
2023-04-25T15:03:44.384Z,96496.17
2023-04-25T15:06:12.731Z,96497.73
2023-04-25T15:08:40.984Z,96498.30
2023-04-25T15:11:09.208Z,96498.02
2023-04-25T15:13:37.946Z,96499.98
2023-04-25T15:16:07.188Z,96497.50
2023-04-25T15:18:35.362Z,96495.84
2023-04-25T15:21:04.409Z,96494.43
2023-04-25T15:23:32.583Z,96495.67
2023-04-25T15:26:00.680Z,96497.02
2023-04-25T15:28:28.817Z,96495.89
2023-04-25T15:30:57.102Z,96490.48
2023-04-25T15:33:25.170Z,96491.91
2023-04-25T15:35:53.617Z,96492.29
2023-04-25T15:38:21.735Z,96488.82
2023-04-25T15:40:49.801Z,96492.86
2023-04-25T15:43:17.966Z,96489.05
2023-04-25T15:45:46.219Z,96488.48
2023-04-25T15:48:14.388Z,96492.65
2023-04-25T15:50:42.692Z,96491.33
2023-04-25T15:53:13.422Z,96489.04
2023-04-25T15:55:41.726Z,96487.63
2023-04-25T15:58:12.748Z,96489.47
2023-04-25T16:00:41.834Z,96491.28
2023-04-25T16:03:10.973Z,96491.48
2023-04-25T16:05:39.634Z,96495.76
2023-04-25T16:08:08.317Z,96499.09
2023-04-25T16:10:36.901Z,96497.48
2023-04-25T16:13:05.160Z,96499.75
2023-04-25T16:15:35.454Z,96497.52
2023-04-25T16:18:04.306Z,96497.05
2023-04-25T16:20:33.002Z,96494.69
2023-04-25T16:23:01.503Z,96495.57
2023-04-25T16:25:29.722Z,96494.56
2023-04-25T16:27:58.189Z,96497.06
2023-04-25T16:30:26.423Z,96497.17
2023-04-25T16:32:57.241Z,96500.28
2023-04-25T16:35:25.998Z,96499.75
2023-04-25T16:37:54.063Z,96502.17
2023-04-25T16:40:22.290Z,96504.19
2023-04-25T16:42:50.500Z,96502.17
2023-04-25T16:45:20.484Z,96504.71
2023-04-25T16:47:51.797Z,96504.52
2023-04-25T16:50:20.763Z,96508.63
2023-04-25T16:52:51.387Z,96514.14
2023-04-25T16:55:19.792Z,96514.51
2023-04-25T16:57:48.032Z,96518.13
2023-04-25T17:00:16.913Z,96522.73
2023-04-25T17:02:45.230Z,96521.98
2023-04-25T17:05:13.649Z,96522.71
2023-04-25T17:07:41.746Z,96520.82
2023-04-25T17:10:10.923Z,96523.75
2023-04-25T17:12:38.990Z,96523.29
2023-04-25T17:15:07.870Z,96528.09
2023-04-25T17:17:35.938Z,96530.69
2023-04-25T17:20:06.867Z,96531.21
2023-04-25T17:22:36.348Z,96534.05
2023-04-25T17:25:05.423Z,96537.74
2023-04-25T17:27:34.440Z,96540.61
2023-04-25T17:30:04.148Z,96539.59
2023-04-25T17:32:32.252Z,96544.54
2023-04-25T17:35:00.469Z,96540.92
2023-04-25T17:37:28.847Z,96541.85
2023-04-25T17:39:57.980Z,96544.20
2023-04-25T17:42:26.343Z,96542.89
2023-04-25T17:44:55.749Z,96543.34
2023-04-25T17:47:25.069Z,96543.02
2023-04-25T17:49:53.339Z,96539.23
2023-04-25T17:52:22.094Z,96541.08
2023-04-25T17:54:50.223Z,96544.75
2023-04-25T17:57:22.825Z,96547.71
2023-04-25T17:59:51.514Z,96545.70
2023-04-25T18:02:20.045Z,96546.67
2023-04-25T18:04:51.633Z,96553.13
2023-04-25T18:07:19.934Z,96553.30
2023-04-25T18:09:47.928Z,96557.05
2023-04-25T18:12:16.882Z,96556.84
2023-04-25T18:14:45.981Z,96561.50
2023-04-25T18:17:15.043Z,96569.67
2023-04-25T18:19:43.142Z,96569.30
2023-04-25T18:22:12.968Z,96572.45
2023-04-25T18:24:44.828Z,96574.11
2023-04-25T18:27:12.907Z,96573.05
2023-04-25T18:29:43.221Z,96578.73
2023-04-25T18:32:11.525Z,96580.98
2023-04-25T18:34:43.858Z,96583.61
2023-04-25T18:37:14.376Z,96584.73
2023-04-25T18:39:42.922Z,96590.72
2023-04-25T18:42:12.361Z,96590.34
2023-04-25T18:44:40.968Z,96595.73
2023-04-25T18:47:19.096Z,96600.86
2023-04-25T18:49:48.032Z,96601.27
2023-04-25T18:52:16.611Z,96597.52
2023-04-25T18:54:45.868Z,96599.86
2023-04-25T18:57:18.017Z,96600.88
2023-04-25T18:59:46.444Z,96599.94
2023-04-25T19:02:16.259Z,96601.61
2023-04-25T19:04:44.660Z,96603.73
2023-04-25T19:07:12.982Z,96605.11
2023-04-25T19:09:41.195Z,96609.52
2023-04-25T19:12:10.115Z,96607.25
2023-04-25T19:14:38.406Z,96608.71
2023-04-25T19:17:06.761Z,96613.21
2023-04-25T19:19:35.031Z,96616.45
2023-04-25T19:22:03.281Z,96610.19
2023-04-25T19:24:33.336Z,96612.67
2023-04-25T19:27:03.126Z,96615.85
2023-04-25T19:29:32.840Z,96615.33
2023-04-25T19:32:03.407Z,96614.11
2023-04-25T19:34:31.976Z,96617.13
2023-04-25T19:37:00.841Z,96618.38
2023-04-25T19:39:29.355Z,96617.11
2023-04-25T19:41:57.800Z,96616.21
2023-04-25T19:44:26.919Z,96619.84
2023-04-25T19:46:55.088Z,96616.00
2023-04-25T19:49:23.161Z,96617.84
2023-04-25T19:51:51.825Z,96620.86
2023-04-25T19:54:21.589Z,96625.21
2023-04-25T19:56:51.031Z,96624.12
2023-04-25T19:59:19.008Z,96626.27
2023-04-25T20:01:47.388Z,96621.65
2023-04-25T20:04:15.689Z,96624.95
2023-04-25T20:06:44.308Z,96625.21
2023-04-25T20:09:12.417Z,96625.95
2023-04-25T20:11:40.464Z,96625.20
2023-04-25T20:14:08.559Z,96627.95
2023-04-25T20:16:37.694Z,96631.11
2023-04-25T20:19:05.819Z,96628.78
2023-04-25T20:21:34.616Z,96629.44
2023-04-25T20:24:02.786Z,96626.55
2023-04-25T20:26:34.172Z,96633.11
2023-04-25T20:29:02.456Z,96632.26
2023-04-25T20:31:31.879Z,96632.42
2023-04-25T20:34:01.092Z,96635.49
2023-04-25T20:36:29.893Z,96638.69
2023-04-25T20:38:58.273Z,96639.88
2023-04-25T20:41:26.826Z,96640.60
2023-04-25T20:43:54.909Z,96643.63
2023-04-25T20:46:23.218Z,96640.68
2023-04-25T20:48:53.024Z,96641.16
2023-04-25T20:51:21.694Z,96630.58
2023-04-25T20:53:49.765Z,96640.26
2023-04-25T20:56:19.278Z,96649.33
2023-04-25T20:58:47.545Z,96651.20
2023-04-25T21:01:15.556Z,96655.70
2023-04-25T21:03:43.743Z,96660.18
2023-04-25T21:06:14.045Z,96660.30
2023-04-25T21:08:42.622Z,96660.52
2023-04-25T21:11:11.947Z,96664.69
2023-04-25T21:13:40.047Z,96661.08
2023-04-25T21:16:08.208Z,96662.36
2023-04-25T21:18:36.411Z,96655.83
2023-04-25T21:21:05.417Z,96657.48
2023-04-25T21:23:33.790Z,96667.45
2023-04-25T21:26:02.056Z,96671.23
2023-04-25T21:28:30.112Z,96670.91
2023-04-25T21:30:58.344Z,96671.64
2023-04-25T21:33:26.525Z,96670.95
2023-04-25T21:35:54.850Z,96674.60
2023-04-25T21:38:22.924Z,96673.91
2023-04-25T21:40:51.109Z,96677.55
2023-04-25T21:43:19.473Z,96680.11
2023-04-25T21:46:14.634Z,96685.13
2023-04-25T21:48:35.811Z,96676.86
2023-04-25T21:51:04.613Z,96680.21
2023-04-25T21:53:32.596Z,96684.41
2023-04-25T21:56:01.086Z,96681.25
2023-04-25T21:58:29.106Z,96683.25
2023-04-25T22:00:57.177Z,96682.67
2023-04-25T22:03:25.669Z,96681.61
2023-04-25T22:05:53.895Z,96675.50
2023-04-25T22:08:22.294Z,96675.30
2023-04-25T22:10:50.490Z,96672.77
2023-04-25T22:13:18.638Z,96673.09
2023-04-25T22:15:47.783Z,96669.41
2023-04-25T22:18:16.493Z,96671.26
2023-04-25T22:20:45.023Z,96667.58
2023-04-25T22:23:13.923Z,96672.38
2023-04-25T22:25:42.546Z,96673.64
2023-04-25T22:28:12.721Z,96680.17
2023-04-25T22:30:40.895Z,96677.33
2023-04-25T22:33:09.076Z,96677.23
2023-04-25T22:35:37.299Z,96678.11
2023-04-25T22:38:05.333Z,96675.21
2023-04-25T22:40:33.652Z,96669.48
2023-04-25T22:43:02.240Z,96671.69
2023-04-25T22:45:30.334Z,96675.29
2023-04-25T22:47:58.775Z,96679.80
2023-04-25T22:50:27.161Z,96684.69
2023-04-25T22:52:55.335Z,96679.42
2023-04-25T22:55:23.854Z,96688.15
2023-04-25T22:57:52.918Z,96684.66
2023-04-25T23:00:22.063Z,96686.19
2023-04-25T23:02:51.117Z,96680.25
2023-04-25T23:05:19.261Z,96683.29
2023-04-25T23:07:47.273Z,96692.02
2023-04-25T23:10:15.435Z,96686.48
2023-04-25T23:12:44.080Z,96690.23
2023-04-25T23:15:13.740Z,96691.63
2023-04-25T23:17:42.427Z,96687.55
2023-04-25T23:20:12.177Z,96684.27
2023-04-25T23:22:40.580Z,96683.02
2023-04-25T23:25:09.696Z,96677.77
2023-04-25T23:27:38.200Z,96679.64
2023-04-25T23:30:07.155Z,96681.34
2023-04-25T23:32:35.896Z,96681.02
2023-04-25T23:35:05.353Z,96690.85
2023-04-25T23:37:34.652Z,96688.67
2023-04-25T23:40:10.196Z,96692.41
2023-04-25T23:42:39.894Z,96690.24
2023-04-25T23:45:09.535Z,96694.92
2023-04-25T23:47:37.929Z,96695.19
2023-04-25T23:50:08.113Z,96694.50
2023-04-25T23:52:36.359Z,96693.69
2023-04-25T23:55:05.780Z,96699.42
2023-04-25T23:57:34.260Z,96697.68
